Hollenberg, Kansas
Current Conditions -  °F | °C
As of 1:35 PM on Thursday 25 Dec 2014 (Local Time) from KMYZ Reporting Station
Clear Clear  
Wind Chill: 52°   Ceiling: Unl
Heat Index: 52°   Visibility: 10mi
Dew Point: 28°   Wind: 28mph
Humidity: 41%   Direction: 200°SSW
Pressure: 29.55"   Gusts: 31mph
Location:  39.98°N, 96.99°W
Report Text: KMYZ 251935Z AUTO 20024G27KT 10SM CLR 11/M02 A2955 RMK AO2
Loading
Personal Weather Stations






























Interactive Weather Map New forecast layout! Learn more

10-Day Weather Forecast

Advertisements
Track Severe Weather on mobile